createdAt,value
2023-04-06T00:00:37.962Z,45.80
2023-04-06T00:03:04.833Z,45.80
2023-04-06T00:05:31.715Z,45.90
2023-04-06T00:07:59.054Z,45.80
2023-04-06T00:10:26.266Z,45.90
2023-04-06T00:12:53.530Z,45.80
2023-04-06T00:15:21.075Z,45.90
2023-04-06T00:17:47.792Z,45.90
2023-04-06T00:20:14.461Z,45.90
2023-04-06T00:22:41.426Z,45.90
2023-04-06T00:25:08.663Z,45.90
2023-04-06T00:27:35.392Z,45.90
2023-04-06T00:30:02.783Z,45.90
2023-04-06T00:32:29.496Z,45.90
2023-04-06T00:34:56.196Z,45.30
2023-04-06T00:37:23.030Z,45.90
2023-04-06T00:39:49.823Z,46.00
2023-04-06T00:42:16.604Z,45.80
2023-04-06T00:44:46.940Z,45.90
2023-04-06T00:47:13.669Z,45.90
2023-04-06T00:49:40.709Z,45.90
2023-04-06T00:52:07.364Z,45.90
2023-04-06T00:54:34.044Z,45.90
2023-04-06T00:57:00.860Z,45.90
2023-04-06T00:59:28.992Z,45.90
2023-04-06T01:01:56.025Z,45.90
2023-04-06T01:04:25.477Z,45.90
2023-04-06T01:06:52.242Z,45.40
2023-04-06T01:09:19.073Z,46.00
2023-04-06T01:11:45.960Z,46.00
2023-04-06T01:14:12.630Z,46.00
2023-04-06T01:16:39.550Z,46.00
2023-04-06T01:19:10.925Z,45.90
2023-04-06T01:21:42.265Z,46.00
2023-04-06T01:24:09.699Z,45.90
2023-04-06T01:26:36.912Z,45.90
2023-04-06T01:29:04.202Z,45.90
2023-04-06T01:31:31.283Z,46.20
2023-04-06T01:33:57.963Z,46.00
2023-04-06T01:36:24.633Z,45.90
2023-04-06T01:38:51.880Z,46.00
2023-04-06T01:41:18.608Z,46.60
2023-04-06T01:43:46.436Z,46.00
2023-04-06T01:46:13.194Z,46.00
2023-04-06T01:48:40.049Z,46.00
2023-04-06T01:51:06.778Z,46.00
2023-04-06T01:53:33.553Z,46.00
2023-04-06T01:56:00.235Z,46.00
2023-04-06T01:58:27.136Z,46.00
2023-04-06T02:00:53.797Z,46.00
2023-04-06T02:03:20.946Z,46.50
2023-04-06T02:05:47.632Z,46.00
2023-04-06T02:08:14.279Z,46.10
2023-04-06T02:10:41.041Z,46.00
2023-04-06T02:13:07.676Z,46.00
2023-04-06T02:15:34.312Z,46.10
2023-04-06T02:18:01.604Z,46.00
2023-04-06T02:20:28.385Z,46.00
2023-04-06T02:23:00.481Z,46.00
2023-04-06T02:25:27.603Z,46.00
2023-04-06T02:27:54.387Z,46.00
2023-04-06T02:30:21.045Z,46.00
2023-04-06T02:32:47.695Z,46.10
2023-04-06T02:35:14.470Z,46.10
2023-04-06T02:37:41.160Z,46.00
2023-04-06T02:40:08.416Z,46.10
2023-04-06T02:42:35.992Z,46.10
2023-04-06T02:45:02.786Z,46.10
2023-04-06T02:47:29.447Z,46.10
2023-04-06T02:49:56.191Z,46.10
2023-04-06T02:52:22.910Z,46.10
2023-04-06T02:54:49.630Z,46.10
2023-04-06T02:57:16.281Z,46.00
2023-04-06T02:59:42.972Z,46.00
2023-04-06T03:02:09.701Z,46.10
2023-04-06T03:04:36.311Z,46.10
2023-04-06T03:07:02.973Z,46.00
2023-04-06T03:09:29.611Z,46.10
2023-04-06T03:11:56.787Z,46.00
2023-04-06T03:14:23.559Z,46.10
2023-04-06T03:16:50.546Z,46.10
2023-04-06T03:19:17.269Z,46.10
2023-04-06T03:21:43.951Z,46.10
2023-04-06T03:24:10.698Z,46.10
2023-04-06T03:26:37.361Z,46.00
2023-04-06T03:29:03.995Z,46.10
2023-04-06T03:31:31.151Z,46.10
2023-04-06T03:33:57.944Z,46.00
2023-04-06T03:36:24.583Z,46.00
2023-04-06T03:38:51.288Z,46.00
2023-04-06T03:41:17.973Z,46.00
2023-04-06T03:43:44.591Z,46.00
2023-04-06T03:46:11.311Z,46.00
2023-04-06T03:48:38.097Z,46.00
2023-04-06T03:51:05.346Z,46.00
2023-04-06T03:53:32.049Z,46.00
2023-04-06T03:55:58.704Z,46.10
2023-04-06T03:58:25.324Z,46.00
2023-04-06T04:00:51.943Z,46.00
2023-04-06T04:03:18.854Z,46.10
2023-04-06T04:05:45.879Z,46.10
2023-04-06T04:08:12.503Z,46.10
2023-04-06T04:10:39.154Z,46.00
2023-04-06T04:13:06.294Z,46.10
2023-04-06T04:15:32.950Z,46.10
2023-04-06T04:17:59.685Z,46.00
2023-04-06T04:20:26.390Z,46.00
2023-04-06T04:22:53.025Z,46.00
2023-04-06T04:25:19.719Z,46.00
2023-04-06T04:27:46.394Z,46.00
2023-04-06T04:30:13.523Z,46.00
2023-04-06T04:32:40.366Z,46.00
2023-04-06T04:35:07.520Z,45.90
2023-04-06T04:37:35.675Z,46.00
2023-04-06T04:40:02.546Z,46.00
2023-04-06T04:42:29.308Z,46.00
2023-04-06T04:44:55.954Z,45.90
2023-04-06T04:47:22.649Z,35.00
2023-04-06T04:49:49.292Z,34.40
2023-04-06T04:52:15.942Z,37.80
2023-04-06T04:54:42.607Z,39.00
2023-04-06T04:57:09.312Z,39.70
2023-04-06T04:59:36.389Z,39.80
2023-04-06T05:02:03.239Z,40.10
2023-04-06T05:04:29.946Z,41.10
2023-04-06T05:07:06.815Z,41.20
2023-04-06T05:09:33.673Z,41.50
2023-04-06T05:12:01.252Z,41.60
2023-04-06T05:14:29.020Z,42.10
2023-04-06T05:16:55.915Z,42.60
2023-04-06T05:19:22.640Z,43.40
2023-04-06T05:21:49.278Z,44.20
2023-04-06T05:24:16.276Z,44.10
2023-04-06T05:26:43.021Z,44.20
2023-04-06T05:29:11.788Z,44.30
2023-04-06T05:31:38.727Z,44.80
2023-04-06T05:34:05.791Z,44.80
2023-04-06T05:36:33.155Z,44.80
2023-04-06T05:38:59.936Z,44.90
2023-04-06T05:41:27.128Z,45.10
2023-04-06T05:43:53.817Z,44.80
2023-04-06T05:46:20.862Z,45.00
2023-04-06T05:48:47.635Z,44.90
2023-04-06T05:51:14.288Z,45.00
2023-04-06T05:53:41.395Z,45.00
2023-04-06T05:56:08.174Z,44.90
2023-04-06T05:58:34.907Z,45.40
2023-04-06T06:01:02.463Z,45.40
2023-04-06T06:03:29.566Z,45.60
2023-04-06T06:06:01.526Z,45.40
2023-04-06T06:08:28.772Z,45.50
2023-04-06T06:10:56.088Z,45.90
2023-04-06T06:13:23.696Z,46.10
2023-04-06T06:15:50.763Z,46.10
2023-04-06T06:18:17.717Z,45.90
2023-04-06T06:20:44.369Z,45.90
2023-04-06T06:23:11.200Z,45.80
2023-04-06T06:25:37.974Z,45.80
2023-04-06T06:28:04.777Z,45.80
2023-04-06T06:30:31.473Z,45.70
2023-04-06T06:32:58.167Z,45.80
2023-04-06T06:35:24.964Z,45.70
2023-04-06T06:37:51.685Z,45.70
2023-04-06T06:40:18.929Z,45.70
2023-04-06T06:42:45.816Z,45.60
2023-04-06T06:45:12.469Z,45.60
2023-04-06T06:47:39.144Z,45.60
2023-04-06T06:50:07.041Z,45.60
2023-04-06T06:52:33.788Z,45.60
2023-04-06T06:55:03.651Z,45.60
2023-04-06T06:57:30.318Z,45.50
2023-04-06T06:59:56.946Z,45.50
2023-04-06T07:02:23.639Z,45.40
2023-04-06T07:04:50.865Z,45.40
2023-04-06T07:07:17.679Z,45.40
2023-04-06T07:09:44.332Z,45.50
2023-04-06T07:12:11.101Z,45.50
2023-04-06T07:14:38.147Z,45.50
2023-04-06T07:17:04.974Z,45.50
2023-04-06T07:19:31.926Z,45.50
2023-04-06T07:21:58.560Z,45.50
2023-04-06T07:24:25.375Z,45.50
2023-04-06T07:26:52.157Z,45.50
2023-04-06T07:29:18.993Z,45.50
2023-04-06T07:31:45.992Z,45.50
2023-04-06T07:34:12.715Z,45.50
2023-04-06T07:36:39.385Z,45.00
2023-04-06T07:39:07.561Z,45.60
2023-04-06T07:41:34.370Z,45.50
2023-04-06T07:44:01.008Z,45.60
2023-04-06T07:46:29.117Z,45.60
2023-04-06T07:48:57.078Z,45.60
2023-04-06T07:51:23.750Z,45.60
2023-04-06T07:53:51.949Z,45.50
2023-04-06T07:56:18.935Z,45.60
2023-04-06T07:58:45.708Z,45.60
2023-04-06T08:01:12.350Z,45.60
2023-04-06T08:03:39.153Z,45.60
2023-04-06T08:06:06.402Z,45.50
2023-04-06T08:08:33.278Z,45.60
2023-04-06T08:11:02.041Z,45.50
2023-04-06T08:13:29.209Z,45.50
2023-04-06T08:15:55.935Z,45.00
2023-04-06T08:18:22.641Z,45.50
2023-04-06T08:20:50.321Z,45.40
2023-04-06T08:23:17.081Z,45.40
2023-04-06T08:25:44.314Z,45.90
2023-04-06T08:28:11.219Z,45.30
2023-04-06T08:30:40.233Z,45.30
2023-04-06T08:33:07.021Z,45.30
2023-04-06T08:35:33.802Z,45.40
2023-04-06T08:38:00.498Z,44.80
2023-04-06T08:40:27.995Z,45.30
2023-04-06T08:42:56.868Z,45.30
2023-04-06T08:45:24.014Z,45.30
2023-04-06T08:47:53.017Z,45.30
2023-04-06T08:50:20.133Z,45.20
2023-04-06T08:52:49.894Z,45.20
2023-04-06T08:55:17.365Z,45.30
2023-04-06T08:57:44.594Z,45.30
2023-04-06T09:00:12.302Z,45.30
2023-04-06T09:02:44.480Z,45.30
2023-04-06T09:05:11.657Z,45.10
2023-04-06T09:07:38.927Z,45.20
2023-04-06T09:10:07.440Z,45.20
2023-04-06T09:12:35.520Z,45.20
2023-04-06T09:15:03.044Z,45.20
2023-04-06T09:17:34.555Z,45.20
2023-04-06T09:20:03.706Z,45.20
2023-04-06T09:22:38.749Z,45.30
2023-04-06T09:25:06.344Z,45.20
2023-04-06T09:27:39.609Z,45.20
2023-04-06T09:30:08.337Z,45.20
2023-04-06T09:32:47.224Z,45.20
2023-04-06T09:35:14.216Z,45.20
2023-04-06T09:37:40.933Z,45.20
2023-04-06T09:40:08.721Z,45.20
2023-04-06T09:42:36.399Z,45.20
2023-04-06T09:45:04.261Z,45.30
2023-04-06T09:47:34.245Z,45.30
2023-04-06T09:50:01.452Z,45.30
2023-04-06T09:52:38.754Z,45.30
2023-04-06T09:55:06.613Z,44.80
2023-04-06T09:57:38.961Z,45.30
2023-04-06T10:00:10.668Z,45.30
2023-04-06T10:03:04.359Z,45.30
2023-04-06T10:05:49.124Z,45.30
2023-04-06T10:08:17.222Z,45.30
2023-04-06T10:10:44.049Z,45.30
2023-04-06T10:13:12.414Z,45.40
2023-04-06T10:15:41.198Z,45.40
2023-04-06T10:18:08.611Z,45.30
2023-04-06T10:21:02.312Z,45.30
2023-04-06T10:23:38.190Z,45.40
2023-04-06T10:26:05.316Z,44.90
2023-04-06T10:28:36.783Z,45.50
2023-04-06T10:31:06.917Z,45.40
2023-04-06T10:33:33.851Z,45.40
2023-04-06T10:36:23.345Z,45.30
2023-04-06T10:38:59.580Z,45.30
2023-04-06T10:41:43.546Z,45.40
2023-04-06T10:44:21.179Z,45.30
2023-04-06T10:46:56.168Z,45.40
2023-04-06T10:49:25.247Z,45.40
2023-04-06T10:51:55.497Z,45.40
2023-04-06T10:54:24.746Z,45.40
2023-04-06T10:56:51.526Z,44.90
2023-04-06T10:59:22.582Z,45.40
2023-04-06T11:01:49.649Z,45.40
2023-04-06T11:04:20.880Z,45.40
2023-04-06T11:06:49.562Z,45.40
2023-04-06T11:09:30.246Z,45.40
2023-04-06T11:11:57.652Z,45.40
2023-04-06T11:14:24.370Z,45.40
2023-04-06T11:16:51.860Z,45.40
2023-04-06T11:19:18.860Z,45.40
2023-04-06T11:21:50.175Z,45.50
2023-04-06T11:24:24.973Z,45.40
2023-04-06T11:26:58.395Z,45.40
2023-04-06T11:29:30.884Z,45.40
2023-04-06T11:32:03.481Z,45.40
2023-04-06T11:34:31.580Z,45.40
2023-04-06T11:37:00.156Z,45.40
2023-04-06T11:39:28.414Z,45.40
2023-04-06T11:42:00.749Z,45.40
2023-04-06T11:44:50.464Z,45.30
2023-04-06T11:47:17.190Z,45.40
2023-04-06T11:49:51.241Z,46.00
2023-04-06T11:52:28.626Z,45.30
2023-04-06T11:54:57.789Z,45.30
2023-04-06T11:57:29.110Z,45.40
2023-04-06T11:59:56.364Z,45.30
2023-04-06T12:02:23.255Z,45.30
2023-04-06T12:04:50.355Z,45.40
2023-04-06T12:07:17.029Z,44.90
2023-04-06T12:09:44.284Z,45.40
2023-04-06T12:12:11.087Z,45.40
2023-04-06T12:14:37.797Z,45.40
2023-04-06T12:17:04.443Z,45.40
2023-04-06T12:19:31.212Z,45.30
2023-04-06T12:21:59.062Z,45.20
2023-04-06T12:24:25.823Z,45.30
2023-04-06T12:26:59.594Z,45.20
2023-04-06T12:29:29.877Z,45.20
2023-04-06T12:31:57.226Z,45.30
2023-04-06T12:34:23.984Z,45.30
2023-04-06T12:36:51.149Z,45.30
2023-04-06T12:39:21.678Z,45.30
2023-04-06T12:41:48.597Z,45.30
2023-04-06T12:44:15.514Z,45.20
2023-04-06T12:46:44.074Z,45.20
2023-04-06T12:49:10.965Z,45.30
2023-04-06T12:51:37.696Z,45.30
2023-04-06T12:54:04.442Z,45.30
2023-04-06T12:56:31.915Z,45.20
2023-04-06T12:58:58.616Z,45.20
2023-04-06T13:01:26.629Z,45.20
2023-04-06T13:03:53.527Z,45.20
2023-04-06T13:06:20.612Z,45.30
2023-04-06T13:08:48.237Z,45.10
2023-04-06T13:11:15.471Z,45.10
2023-04-06T13:13:42.319Z,45.10
2023-04-06T13:16:09.716Z,45.40
2023-04-06T13:18:39.241Z,46.30
2023-04-06T13:21:07.332Z,46.80
2023-04-06T13:23:34.166Z,47.00
2023-04-06T13:26:02.623Z,46.60
2023-04-06T13:28:29.649Z,47.30
2023-04-06T13:30:56.624Z,48.10
2023-04-06T13:33:23.440Z,47.60
2023-04-06T13:35:50.254Z,47.80
2023-04-06T13:38:17.167Z,48.10
2023-04-06T13:40:43.892Z,48.30
2023-04-06T13:43:11.272Z,48.70
2023-04-06T13:45:39.294Z,48.80
2023-04-06T13:48:06.573Z,49.00
2023-04-06T13:50:33.868Z,48.80
2023-04-06T13:53:00.565Z,48.80
2023-04-06T13:55:27.172Z,48.80
2023-04-06T13:57:53.820Z,49.00
2023-04-06T14:00:20.668Z,48.70
2023-04-06T14:02:47.548Z,48.60
2023-04-06T14:05:14.518Z,48.60
2023-04-06T14:07:41.210Z,48.60
2023-04-06T14:10:14.506Z,48.60
2023-04-06T14:12:47.658Z,48.60
2023-04-06T14:15:14.651Z,48.60
2023-04-06T14:17:41.430Z,48.60
2023-04-06T14:20:08.523Z,48.60
2023-04-06T14:22:36.295Z,48.60
2023-04-06T14:25:03.109Z,48.30
2023-04-06T14:27:29.763Z,48.70
2023-04-06T14:29:56.985Z,48.70
2023-04-06T14:32:23.777Z,48.70
2023-04-06T14:34:50.546Z,48.70
2023-04-06T14:37:18.458Z,48.80
2023-04-06T14:39:45.446Z,48.70
2023-04-06T14:42:12.170Z,48.80
2023-04-06T14:44:43.534Z,48.80
2023-04-06T14:47:10.942Z,48.80
2023-04-06T14:49:37.891Z,48.70
2023-04-06T14:52:05.264Z,48.70
2023-04-06T14:54:31.925Z,48.80
2023-04-06T14:56:58.525Z,48.70
2023-04-06T14:59:25.237Z,48.80
2023-04-06T15:01:52.286Z,48.80
2023-04-06T15:04:19.125Z,48.90
2023-04-06T15:06:46.094Z,48.80
2023-04-06T15:09:13.144Z,48.80
2023-04-06T15:11:39.798Z,49.40
2023-04-06T15:14:07.348Z,48.80
2023-04-06T15:16:34.116Z,48.80
2023-04-06T15:19:01.384Z,49.20
2023-04-06T15:21:28.241Z,49.20
2023-04-06T15:23:55.799Z,49.40
2023-04-06T15:26:22.461Z,49.30
2023-04-06T15:28:49.216Z,49.30
2023-04-06T15:31:35.975Z,49.50
2023-04-06T15:34:03.062Z,50.10
2023-04-06T15:36:30.799Z,49.70
2023-04-06T15:39:00.868Z,50.60
2023-04-06T15:41:28.404Z,49.70
2023-04-06T15:43:55.358Z,49.80
2023-04-06T15:46:22.429Z,49.70
2023-04-06T15:48:49.110Z,49.80
2023-04-06T15:51:17.416Z,49.90
2023-04-06T15:53:44.676Z,49.80
2023-04-06T15:56:11.536Z,49.90
2023-04-06T15:58:38.255Z,50.00
2023-04-06T16:01:15.978Z,49.90
2023-04-06T16:03:43.212Z,49.90
2023-04-06T16:06:10.489Z,50.00
2023-04-06T16:08:39.875Z,50.00
2023-04-06T16:11:06.893Z,50.00
2023-04-06T16:13:33.747Z,50.10
2023-04-06T16:16:00.835Z,50.00
2023-04-06T16:18:27.601Z,50.10
2023-04-06T16:20:54.284Z,50.10
2023-04-06T16:23:21.064Z,50.00
2023-04-06T16:25:47.730Z,49.80
2023-04-06T16:28:14.391Z,50.00
2023-04-06T16:30:43.539Z,49.90
2023-04-06T16:33:12.522Z,49.90
2023-04-06T16:35:49.087Z,49.80
2023-04-06T16:38:16.595Z,49.90
2023-04-06T16:40:43.243Z,49.90
2023-04-06T16:43:10.107Z,49.90
2023-04-06T16:45:37.878Z,49.90
2023-04-06T16:48:04.833Z,49.90
2023-04-06T16:50:31.538Z,49.80
2023-04-06T16:52:58.494Z,49.90
2023-04-06T16:55:25.309Z,49.90
2023-04-06T16:57:55.761Z,50.00
2023-04-06T17:00:22.544Z,50.00
2023-04-06T17:02:49.342Z,50.10
2023-04-06T17:05:22.611Z,49.60
2023-04-06T17:07:49.542Z,50.20
2023-04-06T17:10:17.639Z,50.30
2023-04-06T17:12:47.046Z,50.30
2023-04-06T17:15:14.406Z,49.90
2023-04-06T17:17:41.584Z,50.40
2023-04-06T17:20:09.182Z,50.40
2023-04-06T17:22:36.092Z,50.60
2023-04-06T17:25:02.720Z,50.50
2023-04-06T17:27:30.048Z,50.70
2023-04-06T17:29:56.789Z,50.70
2023-04-06T17:32:23.606Z,50.70
2023-04-06T17:34:50.316Z,50.60
2023-04-06T17:37:16.895Z,50.80
2023-04-06T17:39:44.219Z,50.60
2023-04-06T17:42:11.209Z,50.50
2023-04-06T17:44:38.529Z,50.40
2023-04-06T17:47:05.431Z,49.90
2023-04-06T17:49:32.124Z,50.60
2023-04-06T17:51:58.744Z,50.40
2023-04-06T17:54:25.366Z,50.40
2023-04-06T17:56:53.328Z,50.40
2023-04-06T17:59:20.262Z,50.40
2023-04-06T18:01:46.970Z,50.30
2023-04-06T18:04:13.614Z,50.30
2023-04-06T18:06:40.322Z,50.30
2023-04-06T18:09:07.386Z,50.30
2023-04-06T18:11:33.999Z,50.30
2023-04-06T18:14:00.616Z,50.30
2023-04-06T18:16:28.256Z,49.80
2023-04-06T18:18:56.420Z,50.20
2023-04-06T18:21:23.183Z,50.20
2023-04-06T18:23:49.809Z,50.20
2023-04-06T18:26:18.497Z,50.10
2023-04-06T18:28:45.691Z,50.20
2023-04-06T18:31:12.641Z,50.20
2023-04-06T18:33:39.314Z,50.20
2023-04-06T18:36:06.400Z,50.20
2023-04-06T18:38:33.019Z,50.20
2023-04-06T18:40:59.701Z,50.30
2023-04-06T18:43:26.469Z,50.30
2023-04-06T18:45:53.112Z,50.30
2023-04-06T18:48:19.797Z,50.50
2023-04-06T18:50:59.827Z,50.50
2023-04-06T18:53:26.468Z,50.60
2023-04-06T18:55:53.087Z,50.70
2023-04-06T18:58:19.827Z,50.60
2023-04-06T19:00:46.488Z,51.30
2023-04-06T19:03:13.514Z,50.90
2023-04-06T19:05:41.750Z,50.90
2023-04-06T19:08:08.754Z,51.00
2023-04-06T19:10:37.129Z,51.00
2023-04-06T19:13:04.019Z,50.90
2023-04-06T19:15:30.878Z,50.90
2023-04-06T19:17:58.413Z,50.90
2023-04-06T19:20:25.293Z,50.90
2023-04-06T19:22:51.960Z,50.90
2023-04-06T19:25:18.860Z,50.80
2023-04-06T19:27:45.924Z,50.80
2023-04-06T19:30:12.725Z,50.90
2023-04-06T19:32:40.019Z,50.90
2023-04-06T19:35:07.321Z,50.90
2023-04-06T19:37:35.113Z,50.90
2023-04-06T19:40:02.203Z,50.90
2023-04-06T19:42:28.868Z,50.80
2023-04-06T19:44:56.429Z,50.80
2023-04-06T19:47:24.065Z,50.40
2023-04-06T19:49:51.022Z,50.80
2023-04-06T19:52:17.989Z,50.80
2023-04-06T19:54:46.790Z,50.80
2023-04-06T19:57:14.050Z,50.30
2023-04-06T19:59:40.870Z,50.80
2023-04-06T20:02:08.147Z,50.80
2023-04-06T20:04:35.275Z,50.80
2023-04-06T20:07:02.458Z,50.80
2023-04-06T20:09:29.112Z,50.80
2023-04-06T20:11:55.957Z,50.80
2023-04-06T20:14:23.263Z,50.80
2023-04-06T20:16:50.763Z,50.80
2023-04-06T20:19:18.160Z,50.80
2023-04-06T20:21:44.946Z,50.70
2023-04-06T20:24:11.785Z,50.70
2023-04-06T20:26:38.428Z,50.80
2023-04-06T20:29:05.368Z,50.70
2023-04-06T20:31:32.594Z,50.70
2023-04-06T20:33:59.338Z,50.70
2023-04-06T20:36:26.200Z,50.70
2023-04-06T20:38:52.827Z,50.80
2023-04-06T20:41:19.434Z,50.70
2023-04-06T20:43:46.135Z,50.70
2023-04-06T20:46:19.116Z,50.70
2023-04-06T20:48:45.757Z,50.70
2023-04-06T20:51:20.369Z,50.70
2023-04-06T20:53:48.336Z,50.70
2023-04-06T20:56:15.388Z,50.70
2023-04-06T20:58:42.027Z,51.00
2023-04-06T21:01:15.894Z,51.60
2023-04-06T21:03:44.434Z,50.90
2023-04-06T21:06:11.710Z,50.90
2023-04-06T21:08:38.908Z,51.00
2023-04-06T21:11:06.137Z,50.90
2023-04-06T21:13:33.637Z,50.90
2023-04-06T21:16:03.662Z,50.90
2023-04-06T21:18:31.792Z,51.50
2023-04-06T21:20:58.734Z,51.20
2023-04-06T21:23:25.565Z,51.10
2023-04-06T21:25:52.249Z,51.00
2023-04-06T21:28:19.018Z,51.00
2023-04-06T21:30:46.061Z,50.90
2023-04-06T21:33:12.777Z,50.90
2023-04-06T21:35:40.877Z,50.90
2023-04-06T21:38:07.965Z,50.80
2023-04-06T21:40:34.624Z,50.90
2023-04-06T21:43:01.605Z,50.90
2023-04-06T21:45:28.272Z,50.90
2023-04-06T21:47:55.033Z,50.80
2023-04-06T21:50:21.753Z,50.80
2023-04-06T21:52:48.340Z,50.80
2023-04-06T21:55:15.072Z,50.80
2023-04-06T21:57:41.690Z,50.70
2023-04-06T22:00:10.232Z,50.80
2023-04-06T22:02:37.592Z,50.70
2023-04-06T22:05:05.179Z,50.70
2023-04-06T22:07:32.019Z,50.70
2023-04-06T22:09:59.170Z,50.60
2023-04-06T22:12:26.024Z,50.70
2023-04-06T22:14:52.718Z,50.60
2023-04-06T22:17:19.457Z,50.60
2023-04-06T22:19:46.146Z,50.60
2023-04-06T22:22:12.849Z,50.60
2023-04-06T22:24:39.619Z,50.70
2023-04-06T22:27:06.292Z,50.60
2023-04-06T22:29:32.961Z,50.60
2023-04-06T22:31:59.610Z,50.60
2023-04-06T22:34:26.281Z,50.60
2023-04-06T22:36:52.942Z,50.50
2023-04-06T22:39:19.724Z,50.40
2023-04-06T22:41:46.351Z,50.40
2023-04-06T22:44:12.960Z,50.40
2023-04-06T22:46:39.679Z,50.50
2023-04-06T22:49:06.304Z,50.40
2023-04-06T22:51:33.089Z,50.40
2023-04-06T22:53:59.724Z,50.50
2023-04-06T22:56:26.960Z,50.40
2023-04-06T22:58:55.776Z,50.50
2023-04-06T23:01:22.757Z,50.50
2023-04-06T23:03:49.959Z,50.40
2023-04-06T23:06:16.839Z,50.40
2023-04-06T23:08:43.484Z,50.50
2023-04-06T23:11:10.312Z,50.40
2023-04-06T23:13:36.908Z,50.40
2023-04-06T23:16:03.689Z,49.80
2023-04-06T23:18:30.540Z,50.30
2023-04-06T23:20:57.208Z,50.30
2023-04-06T23:23:23.809Z,50.30
2023-04-06T23:25:50.609Z,50.30
2023-04-06T23:28:17.192Z,50.30
2023-04-06T23:30:43.809Z,50.30
2023-04-06T23:33:10.481Z,50.30
2023-04-06T23:35:37.091Z,50.40
2023-04-06T23:38:03.713Z,49.80
2023-04-06T23:40:30.297Z,50.30
2023-04-06T23:42:56.920Z,50.20
2023-04-06T23:45:23.570Z,50.20
2023-04-06T23:47:50.406Z,49.70
2023-04-06T23:50:17.028Z,50.20
2023-04-06T23:52:43.724Z,50.20
2023-04-06T23:55:10.377Z,50.20
2023-04-06T23:57:36.946Z,50.20
